CheckWX is a tool to help pilots better visualize weather data.  It is not intended as a substitute for an official pre-flight weather briefing.

08:50:50 UTC

K2WX METAR
Buffalo Airport
Buffalo, South Dakota, USA
Current

55 mins ago

K2WX 220756Z AUTO 36008KT 06/03 A2962 RMK AO1 SLP042 P0003 T00560033
Observed
May-22 @ 07:56 UTC
Wind
  • 360° at 8 KTS
Visibility
Temperature
C / 43°F
Dewpoint
C / 37°F
Humidity
81%
Altimeter
29.62" Hg
Pressure
1003.02 hPa
Current Rain
0.03"
Previous

2 hours ago

K2WX 220656Z AUTO 01009KT 05/03 A2965 RMK AO1 SLP054 P0007 T00500028 400890028
Observed
May-22 @ 06:56 UTC
Wind
  • 010° at 9 KTS
Visibility
Temperature
C / 41°F
Dewpoint
C / 37°F
Humidity
87%
Altimeter
29.65" Hg
Pressure
1004.02 hPa
Current Rain
0.07"
Previous

3 hours ago

K2WX 220556Z AUTO 04010KT 06/03 A2968 RMK AO1 SLP064 P0005 60034 T00560033 10067 20056 58011
Observed
May-22 @ 05:56 UTC
Wind
  • 040° at 10 KTS
Visibility
Temperature
C / 43°F
Dewpoint
C / 37°F
Humidity
81%
Altimeter
29.68" Hg
Pressure
1005.12 hPa
Current Rain
0.05"